嘉手納 の空港の天気 - METARとTAF

嘉手納基地 ( RODN / DNA ) - 沖縄県沖縄市
飛行場実況気象(Metar)
観測時間09/18 12:56 JST (09/18 03:56 UTC)
風向・風速北 5m/s
視程10km以上
天気現象
全天を覆う雲 雲底高度 1980m
気温27.5℃
湿度83%
気圧1006.9hPa
METARRODN 180356Z AUTO 36010KT 10SM OVC065 28/24 A2972 RMK AO2 DZB02E06RAB06E21DZB21E31 SLP069 P0000 T02750243 $
過去の天気等 Google飛行場航空写真 Wunderground天気予報

過去48時間のMETAR

飛行場予報(TAF)
発表時間: 9/18 11:00 JST (9/18 02:00 UTC)
予報対象時間: 18日11時 JST ~ 19日15時 JST
風向・風速北北東 5m/s 瞬間風速 8m/s
視程6000m
天気現象弱いしゅう雨 周辺で雷
全天の8割程度の積乱雲 雲底高度 760m
18日12時 JST ~ 18日16時 JST に一時的に
風向・風速北東 10m/s 瞬間風速 13m/s
視程3200m
天気現象弱い雷雨
全天の8割程度の積乱雲 雲底高度 460m
18日19時 JST ~ 18日20時 JST に徐々に
風向・風速北東 8m/s 瞬間風速 10m/s
視程6000m
天気現象弱いしゅう雨
全天の4割程度の雲 雲底高度 300m
全天の8割程度の雲 雲底高度 610m
19日1時 JST ~ 19日5時 JST に一時的に
視程3200m
天気現象弱い雨
全天の8割程度の雲 雲底高度 300m
TAF AMD RODN 180200Z 1802/1906 02010G15KT 6000 -SHRA VCTS BKN025CB QNH2966INS
TEMPO 1803/1807 04020G25KT 3200 -TSRA BKN015CB
BECMG 1810/1811 04015G20KT 6000 -SHRA SCT010 BKN020 QNH2964INS
TEMPO 1816/1820 3200 -RA BKN010 TX31/1804Z TN25/1818Z
日本の空港のMETAR・TAFへのリンク

RJTT 東京国際空港
RJAA 新東京国際空港
RJBB 関西国際空港
RJOO 大阪空港
RJGG 中部国際空港
RJCC 新千歳空港
RJFF 福岡空港
ROAH 那覇空港


RJEC 旭川空港
RJCH 函館空港
RJCK 釧路空港
RJCM 女満別空港
RJCB 帯広空港
RJSA 青森空港
RJSS 仙台空港
RJSK 秋田空港
RJSF 福島空港
RJAH 茨城空港
RJSN 新潟空港
RJNT 富山空港
RJNK 小松飛行場
RJNS 静岡空港
RJOH 美保飛行場
RJOC 出雲空港
RJOB 岡山空港
RJOA 広島空港
RJOI 岩国飛行場
RJOT 高松空港
RJOM 松山空港
RJOK 高知空港
RJFR 北九州空港
RJFT 熊本空港
RJFU 長崎空港
RJFS 佐賀空港
RJFO 大分空港
RJFM 宮崎空港
RJFK 鹿児島空港
ROIG 石垣島空港
RJTY 横田飛行場
ROTM 普天間飛行場
RODN 嘉手納飛行場